Terminal Aerodrome Forecast
Issued by NWS

Home | Current Version | Previous Version | Text Only | Print | Product List | Glossary On
Versions: 1 2 3 4 5 6 7 8 9 10 11 12
813
FTUS45 KRIW 281729
TAFCOD
TAF
KCOD 281729Z 2818/2918 27010KT P6SM VCSH SCT100 BKN150
     FM281830 26014G22KT P6SM VCTS SCT060CB BKN080
     FM290300 VRB10G15KT P6SM VCSH SCT060 BKN100
     FM290900 20007KT P6SM SCT100 BKN150
     FM291300 35011KT P6SM VCSH SCT040 BKN060
      AMD LTD TO CLD VIS AND WIND=

USA.gov is the U.S. government's official web portal to all federal, state and local government web resources and services.